sensor_id;sensor_type;location;lat;lon;timestamp;temperature;humidity
69382;DHT22;56560;50.692;12.844;2022-11-20T15:24:46;-0.60;93.80
69382;DHT22;56560;50.692;12.844;2022-11-20T15:27:11;-0.60;93.40
69382;DHT22;56560;50.692;12.844;2022-11-20T15:29:37;-0.50;93.10
69382;DHT22;56560;50.692;12.844;2022-11-20T15:32:03;-0.40;92.30
69382;DHT22;56560;50.692;12.844;2022-11-20T15:34:28;-0.30;91.80
69382;DHT22;56560;50.692;12.844;2022-11-20T15:36:54;-0.20;91.50
69382;DHT22;56560;50.692;12.844;2022-11-20T15:39:20;0.00;91.10
69382;DHT22;56560;50.692;12.844;2022-11-20T15:41:46;0.10;90.70
69382;DHT22;56560;50.692;12.844;2022-11-20T15:44:12;0.20;90.50
69382;DHT22;56560;50.692;12.844;2022-11-20T15:46:41;0.20;89.50
69382;DHT22;56560;50.692;12.844;2022-11-20T15:49:15;0.20;88.70
69382;DHT22;56560;50.692;12.844;2022-11-20T15:51:43;0.30;89.30
69382;DHT22;56560;50.692;12.844;2022-11-20T15:54:20;0.20;87.80
69382;DHT22;56560;50.692;12.844;2022-11-20T15:56:47;0.20;87.40
69382;DHT22;56560;50.692;12.844;2022-11-20T15:59:14;0.10;87.50
69382;DHT22;56560;50.692;12.844;2022-11-20T16:01:40;0.00;87.50
69382;DHT22;56560;50.692;12.844;2022-11-20T16:04:14;0.00;87.60
69382;DHT22;56560;50.692;12.844;2022-11-20T16:06:39;0.00;87.80
69382;DHT22;56560;50.692;12.844;2022-11-20T16:09:05;0.00;88.00
69382;DHT22;56560;50.692;12.844;2022-11-20T16:11:31;0.00;87.40
69382;DHT22;56560;50.692;12.844;2022-11-20T16:13:57;-0.10;87.40
69382;DHT22;56560;50.692;12.844;2022-11-20T16:16:41;-0.20;87.40
69382;DHT22;56560;50.692;12.844;2022-11-20T16:19:11;-0.20;87.90
69382;DHT22;56560;50.692;12.844;2022-11-20T16:21:37;-0.30;88.00
69382;DHT22;56560;50.692;12.844;2022-11-20T16:24:06;-0.40;87.80
69382;DHT22;56560;50.692;12.844;2022-11-20T16:26:32;-0.60;87.90
69382;DHT22;56560;50.692;12.844;2022-11-20T16:28:59;-0.70;88.00
69382;DHT22;56560;50.692;12.844;2022-11-20T16:31:26;-0.90;88.30
69382;DHT22;56560;50.692;12.844;2022-11-20T16:33:53;-1.00;88.50
69382;DHT22;56560;50.692;12.844;2022-11-20T16:36:20;-1.10;89.00
69382;DHT22;56560;50.692;12.844;2022-11-20T16:38:46;-1.20;89.70
69382;DHT22;56560;50.692;12.844;2022-11-20T16:41:12;-1.30;89.90
69382;DHT22;56560;50.692;12.844;2022-11-20T16:43:48;-1.30;89.90
69382;DHT22;56560;50.692;12.844;2022-11-20T16:46:15;-1.40;90.10
69382;DHT22;56560;50.692;12.844;2022-11-20T16:48:40;-1.50;89.80
69382;DHT22;56560;50.692;12.844;2022-11-20T16:51:11;-1.50;90.70
69382;DHT22;56560;50.692;12.844;2022-11-20T16:53:38;-1.60;90.30
69382;DHT22;56560;50.692;12.844;2022-11-20T16:56:15;-1.70;91.20
69382;DHT22;56560;50.692;12.844;2022-11-20T16:58:45;-1.70;91.00
69382;DHT22;56560;50.692;12.844;2022-11-20T17:01:13;-1.70;90.90
69382;DHT22;56560;50.692;12.844;2022-11-20T17:03:40;-1.80;90.30
69382;DHT22;56560;50.692;12.844;2022-11-20T17:06:13;-2.00;89.60
69382;DHT22;56560;50.692;12.844;2022-11-20T17:08:39;-2.10;90.20
69382;DHT22;56560;50.692;12.844;2022-11-20T17:11:10;-2.20;90.10
69382;DHT22;56560;50.692;12.844;2022-11-20T17:13:37;-2.30;90.20
69382;DHT22;56560;50.692;12.844;2022-11-20T17:16:04;-2.40;90.50
69382;DHT22;56560;50.692;12.844;2022-11-20T17:18:31;-2.40;90.40
69382;DHT22;56560;50.692;12.844;2022-11-20T17:20:57;-2.50;91.00
69382;DHT22;56560;50.692;12.844;2022-11-20T17:23:27;-2.50;90.90
69382;DHT22;56560;50.692;12.844;2022-11-20T17:26:09;-2.60;91.00
69382;DHT22;56560;50.692;12.844;2022-11-20T17:28:36;-2.60;90.90
69382;DHT22;56560;50.692;12.844;2022-11-20T17:31:04;-2.70;90.20
69382;DHT22;56560;50.692;12.844;2022-11-20T17:33:30;-2.80;90.40
69382;DHT22;56560;50.692;12.844;2022-11-20T17:35:56;-2.90;90.70
69382;DHT22;56560;50.692;12.844;2022-11-20T17:38:22;-3.00;91.20
69382;DHT22;56560;50.692;12.844;2022-11-20T17:40:48;-3.00;91.40
69382;DHT22;56560;50.692;12.844;2022-11-20T17:43:13;-3.00;91.90
69382;DHT22;56560;50.692;12.844;2022-11-20T17:45:39;-3.00;92.20
69382;DHT22;56560;50.692;12.844;2022-11-20T17:48:08;-3.00;92.10
69382;DHT22;56560;50.692;12.844;2022-11-20T17:50:34;-3.00;91.50
69382;DHT22;56560;50.692;12.844;2022-11-20T17:53:00;-3.10;91.20
69382;DHT22;56560;50.692;12.844;2022-11-20T17:55:25;-3.10;91.30
69382;DHT22;56560;50.692;12.844;2022-11-20T17:57:51;-3.20;90.70
69382;DHT22;56560;50.692;12.844;2022-11-20T18:00:17;-3.20;90.10
69382;DHT22;56560;50.692;12.844;2022-11-20T18:02:43;-3.30;90.30
69382;DHT22;56560;50.692;12.844;2022-11-20T18:05:08;-3.30;90.70
69382;DHT22;56560;50.692;12.844;2022-11-20T18:07:34;-3.30;90.50
69382;DHT22;56560;50.692;12.844;2022-11-20T18:10:00;-3.30;91.30
69382;DHT22;56560;50.692;12.844;2022-11-20T18:12:25;-3.30;91.60
69382;DHT22;56560;50.692;12.844;2022-11-20T18:14:51;-3.20;91.20
69382;DHT22;56560;50.692;12.844;2022-11-20T18:17:17;-3.10;91.30
69382;DHT22;56560;50.692;12.844;2022-11-20T18:19:45;-3.10;91.10
69382;DHT22;56560;50.692;12.844;2022-11-20T18:22:12;-3.00;91.00
69382;DHT22;56560;50.692;12.844;2022-11-20T18:24:38;-2.80;90.70
69382;DHT22;56560;50.692;12.844;2022-11-20T18:27:05;-2.60;90.60
69382;DHT22;56560;50.692;12.844;2022-11-20T18:29:32;-2.50;90.60
69382;DHT22;56560;50.692;12.844;2022-11-20T18:31:58;-2.30;90.50
69382;DHT22;56560;50.692;12.844;2022-11-20T18:34:24;-2.10;89.70
69382;DHT22;56560;50.692;12.844;2022-11-20T18:36:50;-2.00;89.20
69382;DHT22;56560;50.692;12.844;2022-11-20T18:39:16;-1.80;88.70
69382;DHT22;56560;50.692;12.844;2022-11-20T18:41:42;-1.70;88.40
69382;DHT22;56560;50.692;12.844;2022-11-20T18:44:30;-1.60;89.40
69382;DHT22;56560;50.692;12.844;2022-11-20T18:47:21;-1.40;89.10
69382;DHT22;56560;50.692;12.844;2022-11-20T18:49:50;-1.40;88.40
69382;DHT22;56560;50.692;12.844;2022-11-20T18:52:32;-1.30;88.50
69382;DHT22;56560;50.692;12.844;2022-11-20T18:54:59;-1.20;88.40
69382;DHT22;56560;50.692;12.844;2022-11-20T18:57:26;-1.20;89.80
69382;DHT22;56560;50.692;12.844;2022-11-20T18:59:53;-1.10;89.70
69382;DHT22;56560;50.692;12.844;2022-11-20T19:02:19;-1.10;89.90
69382;DHT22;56560;50.692;12.844;2022-11-20T19:04:46;-1.00;89.30
69382;DHT22;56560;50.692;12.844;2022-11-20T19:07:12;-1.00;89.40
69382;DHT22;56560;50.692;12.844;2022-11-20T19:09:39;-1.00;89.40
69382;DHT22;56560;50.692;12.844;2022-11-20T19:12:06;-1.00;88.50
69382;DHT22;56560;50.692;12.844;2022-11-20T19:14:32;-1.10;88.50
69382;DHT22;56560;50.692;12.844;2022-11-20T19:16:57;-1.10;88.40
69382;DHT22;56560;50.692;12.844;2022-11-20T19:19:23;-1.10;88.10
69382;DHT22;56560;50.692;12.844;2022-11-20T19:21:50;-1.20;88.50
69382;DHT22;56560;50.692;12.844;2022-11-20T19:24:16;-1.30;88.60
69382;DHT22;56560;50.692;12.844;2022-11-20T19:26:41;-1.30;88.90
69382;DHT22;56560;50.692;12.844;2022-11-20T19:29:12;-1.40;88.90
69382;DHT22;56560;50.692;12.844;2022-11-20T19:31:38;-1.40;89.10
69382;DHT22;56560;50.692;12.844;2022-11-20T19:34:04;-1.50;89.10
69382;DHT22;56560;50.692;12.844;2022-11-20T19:36:35;-1.60;88.60
69382;DHT22;56560;50.692;12.844;2022-11-20T19:39:02;-1.70;89.30
69382;DHT22;56560;50.692;12.844;2022-11-20T19:41:31;-1.80;89.20
69382;DHT22;56560;50.692;12.844;2022-11-20T19:43:58;-1.90;89.30
69382;DHT22;56560;50.692;12.844;2022-11-20T19:46:26;-2.00;89.20
69382;DHT22;56560;50.692;12.844;2022-11-20T19:48:53;-2.20;89.40
69382;DHT22;56560;50.692;12.844;2022-11-20T19:51:22;-2.20;89.40
69382;DHT22;56560;50.692;12.844;2022-11-20T19:53:48;-2.30;89.90
69382;DHT22;56560;50.692;12.844;2022-11-20T19:56:14;-2.20;90.30
69382;DHT22;56560;50.692;12.844;2022-11-20T19:58:40;-2.00;90.80
69382;DHT22;56560;50.692;12.844;2022-11-20T20:01:09;-1.80;90.70
69382;DHT22;56560;50.692;12.844;2022-11-20T20:03:36;-1.60;89.90
69382;DHT22;56560;50.692;12.844;2022-11-20T20:06:04;-1.40;89.20
69382;DHT22;56560;50.692;12.844;2022-11-20T20:08:30;-1.30;88.90
69382;DHT22;56560;50.692;12.844;2022-11-20T20:10:56;-1.20;88.30
69382;DHT22;56560;50.692;12.844;2022-11-20T20:13:22;-1.10;88.80
69382;DHT22;56560;50.692;12.844;2022-11-20T20:15:48;-1.00;89.10
69382;DHT22;56560;50.692;12.844;2022-11-20T20:18:14;-0.90;88.50
69382;DHT22;56560;50.692;12.844;2022-11-20T20:20:40;-0.80;88.00
69382;DHT22;56560;50.692;12.844;2022-11-20T20:23:06;-0.70;88.20
69382;DHT22;56560;50.692;12.844;2022-11-20T20:25:33;-0.70;88.30
69382;DHT22;56560;50.692;12.844;2022-11-20T20:27:58;-0.70;88.20
69382;DHT22;56560;50.692;12.844;2022-11-20T20:30:24;-0.60;88.20
69382;DHT22;56560;50.692;12.844;2022-11-20T20:32:50;-0.60;88.20
69382;DHT22;56560;50.692;12.844;2022-11-20T20:35:16;-0.50;88.20
69382;DHT22;56560;50.692;12.844;2022-11-20T20:37:41;-0.40;88.20
69382;DHT22;56560;50.692;12.844;2022-11-20T20:40:07;-0.30;88.00
69382;DHT22;56560;50.692;12.844;2022-11-20T20:42:33;-0.20;88.00
69382;DHT22;56560;50.692;12.844;2022-11-20T20:44:59;-0.10;88.10
69382;DHT22;56560;50.692;12.844;2022-11-20T20:47:35;0.00;87.60
69382;DHT22;56560;50.692;12.844;2022-11-20T20:50:04;0.10;87.80
69382;DHT22;56560;50.692;12.844;2022-11-20T20:52:30;0.20;88.30
69382;DHT22;56560;50.692;12.844;2022-11-20T20:54:56;0.30;88.40
69382;DHT22;56560;50.692;12.844;2022-11-20T20:57:22;0.40;88.00
69382;DHT22;56560;50.692;12.844;2022-11-20T20:59:49;0.50;87.80
69382;DHT22;56560;50.692;12.844;2022-11-20T21:02:16;0.50;87.90
69382;DHT22;56560;50.692;12.844;2022-11-20T21:04:42;0.60;87.60
69382;DHT22;56560;50.692;12.844;2022-11-20T21:07:07;0.60;87.70
69382;DHT22;56560;50.692;12.844;2022-11-20T21:09:35;0.70;87.70
69382;DHT22;56560;50.692;12.844;2022-11-20T21:12:00;0.70;87.90
69382;DHT22;56560;50.692;12.844;2022-11-20T21:14:26;0.70;88.20
69382;DHT22;56560;50.692;12.844;2022-11-20T21:16:52;0.80;88.40
69382;DHT22;56560;50.692;12.844;2022-11-20T21:19:18;0.90;88.50
69382;DHT22;56560;50.692;12.844;2022-11-20T21:21:49;1.00;88.00
69382;DHT22;56560;50.692;12.844;2022-11-20T21:24:33;1.00;88.00
69382;DHT22;56560;50.692;12.844;2022-11-20T21:27:03;1.10;88.10
69382;DHT22;56560;50.692;12.844;2022-11-20T21:29:48;1.10;88.00
69382;DHT22;56560;50.692;12.844;2022-11-20T21:34:49;1.10;88.10
69382;DHT22;56560;50.692;12.844;2022-11-20T21:37:16;1.20;88.40
69382;DHT22;56560;50.692;12.844;2022-11-20T21:39:42;1.20;88.50
69382;DHT22;56560;50.692;12.844;2022-11-20T21:42:14;1.20;89.10
69382;DHT22;56560;50.692;12.844;2022-11-20T21:44:40;1.10;89.80
69382;DHT22;56560;50.692;12.844;2022-11-20T21:47:06;1.20;90.20
69382;DHT22;56560;50.692;12.844;2022-11-20T21:49:31;1.20;90.60
69382;DHT22;56560;50.692;12.844;2022-11-20T21:51:57;1.20;90.80
69382;DHT22;56560;50.692;12.844;2022-11-20T21:54:22;1.30;90.90
69382;DHT22;56560;50.692;12.844;2022-11-20T21:56:48;1.40;91.10
69382;DHT22;56560;50.692;12.844;2022-11-20T21:59:14;1.50;91.10
69382;DHT22;56560;50.692;12.844;2022-11-20T22:01:39;1.60;91.00
69382;DHT22;56560;50.692;12.844;2022-11-20T22:04:06;1.70;90.80
69382;DHT22;56560;50.692;12.844;2022-11-20T22:06:33;1.80;90.80
69382;DHT22;56560;50.692;12.844;2022-11-20T22:09:00;1.80;90.50
69382;DHT22;56560;50.692;12.844;2022-11-20T22:11:26;1.90;90.30
69382;DHT22;56560;50.692;12.844;2022-11-20T22:13:53;1.90;90.40
69382;DHT22;56560;50.692;12.844;2022-11-20T22:16:38;1.90;90.40
69382;DHT22;56560;50.692;12.844;2022-11-20T22:19:04;2.00;90.20
69382;DHT22;56560;50.692;12.844;2022-11-20T22:21:30;2.10;90.00
69382;DHT22;56560;50.692;12.844;2022-11-20T22:23:57;2.10;90.00
69382;DHT22;56560;50.692;12.844;2022-11-20T22:26:25;2.20;89.90
69382;DHT22;56560;50.692;12.844;2022-11-20T22:28:53;2.20;89.50
69382;DHT22;56560;50.692;12.844;2022-11-20T22:31:21;2.20;89.60
69382;DHT22;56560;50.692;12.844;2022-11-20T22:33:47;2.20;89.60
69382;DHT22;56560;50.692;12.844;2022-11-20T22:36:15;2.30;89.60
69382;DHT22;56560;50.692;12.844;2022-11-20T22:38:42;2.20;89.80
69382;DHT22;56560;50.692;12.844;2022-11-20T22:43:43;2.30;89.90
69382;DHT22;56560;50.692;12.844;2022-11-20T22:46:14;2.30;89.80
69382;DHT22;56560;50.692;12.844;2022-11-20T22:48:42;2.30;89.70
69382;DHT22;56560;50.692;12.844;2022-11-20T22:51:13;2.40;89.30
69382;DHT22;56560;50.692;12.844;2022-11-20T22:53:40;2.40;89.40
69382;DHT22;56560;50.692;12.844;2022-11-20T22:56:06;2.40;89.40
69382;DHT22;56560;50.692;12.844;2022-11-20T22:58:34;2.40;89.10
69382;DHT22;56560;50.692;12.844;2022-11-20T23:01:26;2.50;89.20
69382;DHT22;56560;50.692;12.844;2022-11-20T23:03:57;2.50;88.90
69382;DHT22;56560;50.692;12.844;2022-11-20T23:06:24;2.50;88.90
69382;DHT22;56560;50.692;12.844;2022-11-20T23:08:50;2.60;88.70
69382;DHT22;56560;50.692;12.844;2022-11-20T23:11:21;2.60;88.60
69382;DHT22;56560;50.692;12.844;2022-11-20T23:13:55;2.60;88.60
69382;DHT22;56560;50.692;12.844;2022-11-20T23:16:23;2.50;88.80
69382;DHT22;56560;50.692;12.844;2022-11-20T23:18:57;2.50;88.70
69382;DHT22;56560;50.692;12.844;2022-11-20T23:21:23;2.50;88.70
69382;DHT22;56560;50.692;12.844;2022-11-20T23:23:51;2.60;88.70
69382;DHT22;56560;50.692;12.844;2022-11-20T23:26:18;2.60;88.50
69382;DHT22;56560;50.692;12.844;2022-11-20T23:28:45;2.60;88.40
69382;DHT22;56560;50.692;12.844;2022-11-20T23:31:12;2.60;88.50
69382;DHT22;56560;50.692;12.844;2022-11-20T23:33:39;2.70;88.30
69382;DHT22;56560;50.692;12.844;2022-11-20T23:36:06;2.70;88.10
69382;DHT22;56560;50.692;12.844;2022-11-20T23:38:32;2.70;88.30
69382;DHT22;56560;50.692;12.844;2022-11-20T23:40:58;2.70;88.40
69382;DHT22;56560;50.692;12.844;2022-11-20T23:43:24;2.70;88.20
69382;DHT22;56560;50.692;12.844;2022-11-20T23:45:54;2.70;88.00
69382;DHT22;56560;50.692;12.844;2022-11-20T23:48:21;2.70;88.20
69382;DHT22;56560;50.692;12.844;2022-11-20T23:50:47;2.70;88.30
69382;DHT22;56560;50.692;12.844;2022-11-20T23:53:14;2.70;88.30
69382;DHT22;56560;50.692;12.844;2022-11-20T23:55:44;2.70;88.30
69382;DHT22;56560;50.692;12.844;2022-11-20T23:58:10;2.70;88.40
